createdAt,value
2022-12-23T00:04:18.720Z,99064.78
2022-12-23T00:09:20.139Z,99067.84
2022-12-23T00:14:40.015Z,99064.50
2022-12-23T00:19:41.399Z,99067.56
2022-12-23T00:24:42.778Z,99063.88
2022-12-23T00:29:44.117Z,99046.59
2022-12-23T00:34:45.421Z,99042.38
2022-12-23T00:40:06.910Z,99046.00
2022-12-23T00:45:17.983Z,99037.53
2022-12-23T00:50:19.284Z,99042.84
2022-12-23T00:55:21.156Z,99047.41
2022-12-23T01:00:43.031Z,99043.91
2022-12-23T01:05:44.411Z,99036.03
2022-12-23T01:10:45.784Z,99031.59
2022-12-23T01:15:47.560Z,99062.28
2022-12-23T01:20:48.943Z,99053.84
2022-12-23T01:25:57.497Z,99042.38
2022-12-23T01:31:00.897Z,99064.78
2022-12-23T01:36:03.805Z,99089.28
2022-12-23T01:41:05.307Z,99087.75
2022-12-23T01:46:06.715Z,99086.88
2022-12-23T01:51:16.700Z,99100.28
2022-12-23T01:56:26.666Z,99112.50
2022-12-23T02:01:48.361Z,99108.16
2022-12-23T02:07:10.010Z,99112.66
2022-12-23T02:12:29.988Z,99109.09
2022-12-23T02:17:38.296Z,99113.88
2022-12-23T02:23:17.499Z,99128.69
2022-12-23T02:28:52.264Z,99145.81
2022-12-23T02:34:21.364Z,99145.97
2022-12-23T02:39:39.469Z,99157.13
2022-12-23T02:44:45.587Z,99155.53
2022-12-23T02:49:57.476Z,99163.81
2022-12-23T02:55:03.081Z,99167.16
2022-12-23T03:00:06.362Z,99174.69
2022-12-23T03:05:39.536Z,99161.50
2022-12-23T03:10:55.284Z,99153.38
2022-12-23T03:16:13.450Z,99159.28
2022-12-23T03:21:24.420Z,99162.53
2022-12-23T03:26:41.519Z,99171.09
2022-12-23T03:31:44.250Z,99166.69
2022-12-23T03:36:52.462Z,99167.53
2022-12-23T03:42:04.706Z,99175.38
2022-12-23T03:47:12.283Z,99189.66
2022-12-23T03:52:22.470Z,99188.28
2022-12-23T03:57:36.409Z,99210.94
2022-12-23T04:03:10.254Z,99215.03
2022-12-23T04:08:18.896Z,99210.41
2022-12-23T04:13:20.417Z,99214.91
2022-12-23T04:18:21.726Z,99229.47
2022-12-23T04:23:23.231Z,99237.34
2022-12-23T04:28:24.673Z,99225.75
2022-12-23T04:33:26.123Z,99227.69
2022-12-23T04:38:27.465Z,99229.25
2022-12-23T04:43:28.891Z,99222.84
2022-12-23T04:48:30.619Z,99227.34
2022-12-23T04:53:32.149Z,99243.00
2022-12-23T04:58:33.516Z,99248.31
2022-12-23T05:03:35.140Z,99242.56
2022-12-23T05:08:36.587Z,99246.22
2022-12-23T05:13:38.033Z,99252.22
2022-12-23T05:18:39.391Z,99246.66
2022-12-23T05:23:40.794Z,99247.06
2022-12-23T05:28:45.520Z,99263.72
2022-12-23T05:33:46.861Z,99266.66
2022-12-23T05:38:48.391Z,99262.03
2022-12-23T05:43:49.690Z,99261.03
2022-12-23T05:48:51.020Z,99271.94
2022-12-23T05:53:52.475Z,99262.88
2022-12-23T05:58:54.080Z,99273.63
2022-12-23T06:03:55.953Z,99274.31
2022-12-23T06:09:00.749Z,99273.34
2022-12-23T06:14:02.729Z,99287.50
2022-12-23T06:19:04.285Z,99286.94
2022-12-23T06:24:06.291Z,99282.03
2022-12-23T06:29:07.624Z,99283.72
2022-12-23T06:34:09.044Z,99292.22
2022-12-23T06:39:11.839Z,99289.16
2022-12-23T06:44:13.209Z,99313.19
2022-12-23T06:49:14.550Z,99313.78
2022-12-23T06:54:15.915Z,99314.22
2022-12-23T06:59:17.282Z,99317.69
2022-12-23T07:04:19.029Z,99332.22
2022-12-23T07:09:20.422Z,99310.28
2022-12-23T07:14:21.910Z,99304.53
2022-12-23T07:19:23.995Z,99308.69
2022-12-23T07:24:25.302Z,99296.94
2022-12-23T07:29:26.642Z,99304.63
2022-12-23T07:34:28.073Z,99313.56
2022-12-23T07:39:29.439Z,99330.66
2022-12-23T07:44:30.811Z,99334.44
2022-12-23T07:49:32.348Z,99343.22
2022-12-23T07:54:33.683Z,99359.91
2022-12-23T07:59:35.288Z,99355.28
2022-12-23T08:04:42.568Z,99347.56
2022-12-23T08:09:47.048Z,99357.22
2022-12-23T08:14:48.775Z,99353.00
2022-12-23T08:19:50.230Z,99346.72
2022-12-23T08:24:52.677Z,99344.19
2022-12-23T08:29:54.106Z,99346.09
2022-12-23T08:34:57.470Z,99354.22
2022-12-23T08:40:00.186Z,99350.28
2022-12-23T08:45:01.697Z,99340.72
2022-12-23T08:50:03.997Z,99335.38
2022-12-23T08:55:05.836Z,99338.75
2022-12-23T09:00:07.975Z,99349.34
2022-12-23T09:05:09.330Z,99356.34
2022-12-23T09:10:11.090Z,99363.91
2022-12-23T09:15:12.486Z,99358.28
2022-12-23T09:20:13.815Z,99359.53
2022-12-23T09:25:15.597Z,99371.56
2022-12-23T09:30:17.023Z,99354.88
2022-12-23T09:35:18.487Z,99365.19
2022-12-23T09:40:21.375Z,99352.56
2022-12-23T09:45:41.144Z,99327.75
2022-12-23T09:50:43.642Z,99350.03
2022-12-23T09:56:00.330Z,99346.84
2022-12-23T10:01:15.997Z,99350.50
2022-12-23T10:06:25.276Z,99361.16
2022-12-23T10:11:31.761Z,99343.69
2022-12-23T10:16:39.731Z,99325.66
2022-12-23T10:21:47.967Z,99332.94
2022-12-23T10:27:10.643Z,99308.78
2022-12-23T10:32:44.552Z,99309.34
2022-12-23T10:37:54.043Z,99301.72
2022-12-23T10:42:55.319Z,99306.72
2022-12-23T10:48:35.341Z,99289.63
2022-12-23T10:53:47.176Z,99290.75
2022-12-23T10:58:57.733Z,99285.72
2022-12-23T11:04:16.189Z,99268.88
2022-12-23T11:09:24.979Z,99261.91
2022-12-23T11:14:52.562Z,99249.28
2022-12-23T11:20:06.212Z,99253.47
2022-12-23T11:25:36.746Z,99238.47
2022-12-23T11:30:55.575Z,99209.50
2022-12-23T11:36:02.442Z,99193.22
2022-12-23T11:41:05.331Z,99183.13
2022-12-23T11:46:16.038Z,99182.97
2022-12-23T11:51:25.034Z,99166.84
2022-12-23T11:56:27.376Z,99164.03
2022-12-23T12:01:28.989Z,99154.09
2022-12-23T12:06:32.452Z,99129.00
2022-12-23T12:11:44.584Z,99125.81
2022-12-23T12:17:23.115Z,99115.97
2022-12-23T12:23:06.603Z,99102.06
2022-12-23T12:28:18.034Z,99079.00
2022-12-23T12:33:26.987Z,99098.06
2022-12-23T12:38:34.905Z,99084.81
2022-12-23T12:43:46.301Z,99085.16
2022-12-23T12:49:00.952Z,99059.47
2022-12-23T12:54:05.495Z,99075.22
2022-12-23T12:59:11.805Z,99063.28
2022-12-23T13:04:31.665Z,99049.31
2022-12-23T13:09:50.567Z,99027.63
2022-12-23T13:15:23.432Z,99022.00
2022-12-23T13:20:38.155Z,99009.53
2022-12-23T13:25:44.452Z,98995.34
2022-12-23T13:30:59.753Z,98971.53
2022-12-23T13:36:16.718Z,98977.09
2022-12-23T13:42:04.643Z,98976.06
2022-12-23T13:47:45.356Z,98969.75
2022-12-23T13:53:01.642Z,98953.75
2022-12-23T13:58:13.214Z,98945.28
2022-12-23T14:03:23.647Z,98935.28
2022-12-23T14:08:40.642Z,98931.81
2022-12-23T14:13:51.627Z,98930.44
2022-12-23T14:19:29.976Z,98917.78
2022-12-23T14:25:04.759Z,98918.50
2022-12-23T14:30:16.631Z,98903.00
2022-12-23T14:35:47.024Z,98891.53
2022-12-23T14:41:13.073Z,98878.38
2022-12-23T14:46:36.454Z,98867.41
2022-12-23T14:51:39.989Z,98853.59
2022-12-23T14:56:41.899Z,98865.94
2022-12-23T15:02:09.548Z,98855.28
2022-12-23T15:07:20.969Z,98858.59
2022-12-23T15:12:31.580Z,98858.91
2022-12-23T15:17:36.081Z,98873.59
2022-12-23T15:22:38.394Z,98874.09
2022-12-23T15:27:40.072Z,98851.25
2022-12-23T15:32:44.832Z,98859.13
2022-12-23T15:37:49.883Z,98866.97
2022-12-23T15:42:51.387Z,98895.28
2022-12-23T15:47:52.866Z,98876.59
2022-12-23T15:52:56.147Z,98871.09
2022-12-23T15:57:59.454Z,98874.41
2022-12-23T16:03:03.308Z,98855.59
2022-12-23T16:08:10.689Z,98853.97
2022-12-23T16:13:17.950Z,98852.97
2022-12-23T16:18:19.436Z,98847.47
2022-12-23T16:23:22.058Z,98843.00
2022-12-23T16:28:29.827Z,98836.81
2022-12-23T16:33:38.622Z,98833.16
2022-12-23T16:38:40.129Z,98827.16
2022-12-23T16:43:47.671Z,98842.47
2022-12-23T16:48:57.639Z,98842.31
2022-12-23T16:53:59.926Z,98848.31
2022-12-23T16:59:01.575Z,98866.00
2022-12-23T17:04:03.356Z,98866.50
2022-12-23T17:09:06.242Z,98889.38
2022-12-23T17:14:15.886Z,98890.00
2022-12-23T17:19:23.408Z,98877.81
2022-12-23T17:24:30.204Z,98887.97
2022-12-23T17:29:31.919Z,98863.34
2022-12-23T17:34:33.396Z,98884.00
2022-12-23T17:39:34.774Z,98894.00
2022-12-23T17:44:36.230Z,98902.69
2022-12-23T17:49:37.621Z,98908.66
2022-12-23T17:54:39.083Z,98905.31
2022-12-23T17:59:40.893Z,98901.66
2022-12-23T18:04:42.272Z,98905.31
2022-12-23T18:09:43.998Z,98917.34
2022-12-23T18:14:45.624Z,98922.84
2022-12-23T18:19:47.286Z,98913.97
2022-12-23T18:24:53.807Z,98938.28
2022-12-23T18:29:58.502Z,98935.97
2022-12-23T18:34:59.953Z,98943.97
2022-12-23T18:40:01.340Z,98954.63
2022-12-23T18:45:02.682Z,98966.97
2022-12-23T18:50:04.443Z,98963.97
2022-12-23T18:55:07.136Z,98988.28
2022-12-23T19:00:15.860Z,98999.28
2022-12-23T19:05:28.701Z,99001.28
2022-12-23T19:10:39.682Z,99008.31
2022-12-23T19:15:42.902Z,99010.97
2022-12-23T19:20:45.793Z,99020.78
2022-12-23T19:25:54.427Z,99056.78
2022-12-23T19:30:56.268Z,99037.31
2022-12-23T19:35:57.982Z,99059.94
2022-12-23T19:40:59.591Z,99064.47
2022-12-23T19:46:03.734Z,99077.25
2022-12-23T19:51:11.187Z,99085.13
2022-12-23T19:56:15.259Z,99082.63
2022-12-23T20:01:19.999Z,99096.94
2022-12-23T20:06:28.155Z,99087.66
2022-12-23T20:11:33.263Z,99090.66
2022-12-23T20:16:35.121Z,99115.66
2022-12-23T20:21:37.557Z,99126.72
2022-12-23T20:26:39.382Z,99131.72
2022-12-23T20:31:40.928Z,99150.13
2022-12-23T20:36:42.461Z,99161.94
2022-12-23T20:41:43.952Z,99183.47
2022-12-23T20:46:45.386Z,99173.59
2022-12-23T20:51:47.329Z,99178.41
2022-12-23T20:56:48.615Z,99165.03
2022-12-23T21:01:50.088Z,99179.06
2022-12-23T21:06:51.472Z,99197.03
2022-12-23T21:11:52.950Z,99186.03
2022-12-23T21:16:55.413Z,99190.88
2022-12-23T21:21:56.830Z,99209.53
2022-12-23T21:26:58.177Z,99222.66
2022-12-23T21:32:00.483Z,99225.47
2022-12-23T21:37:02.042Z,99225.25
2022-12-23T21:42:03.852Z,99227.41
2022-12-23T21:47:05.263Z,99249.56
2022-12-23T21:52:06.676Z,99239.56
2022-12-23T21:57:08.081Z,99251.91
2022-12-23T22:02:15.916Z,99269.91
2022-12-23T22:07:17.317Z,99292.88
2022-12-23T22:12:18.689Z,99281.34
2022-12-23T22:17:20.013Z,99274.47
2022-12-23T22:22:21.424Z,99298.16
2022-12-23T22:27:22.776Z,99293.66
2022-12-23T22:32:24.135Z,99300.31
2022-12-23T22:37:25.513Z,99299.75
2022-12-23T22:42:26.810Z,99306.06
2022-12-23T22:47:28.240Z,99308.91
2022-12-23T22:52:29.785Z,99321.19
2022-12-23T22:57:31.279Z,99343.31
2022-12-23T23:02:32.645Z,99352.31
2022-12-23T23:07:34.143Z,99360.44
2022-12-23T23:12:35.569Z,99377.53
2022-12-23T23:17:36.869Z,99385.06
2022-12-23T23:22:38.573Z,99395.13
2022-12-23T23:27:39.952Z,99391.16
2022-12-23T23:32:41.434Z,99403.19
2022-12-23T23:37:42.815Z,99403.25
2022-12-23T23:42:44.188Z,99423.16
2022-12-23T23:47:45.974Z,99423.09
2022-12-23T23:52:47.448Z,99428.00
2022-12-23T23:57:48.818Z,99418.56
